Туризм
Свали.ру
Погода в мире
ИА "Метеоновости"
Информеры
для сайтов
Туры
поиск и заказ
Авиабилеты
регулярные и чартерные рейсы
 
    На главную   Табло рисков задержки   Авиабилеты   Расписание авиарейсов

In Salah Airport    ICAO или ID: DAUI, IATA: INZ
Небольшой аэропорт, регулярные рейсы
добавить в избранное


широта:
долгота:
высота над уровнем моря:
27°15'
2°31'

273 м
Страна: Алжир (Algeria)
погода
туры
отели
аэропорты
Риск задержки рейсов из-за погоды
Факт:  
Прогноз:  
 Карта
 



Текущее время 17:27 UTC 24-06-2024
Солнце: восход 04:57, заход 18:48, долгота дня 13:51

  18:00 (на 24ч) 06:00 (на 24ч) [12:00 (на 24ч)]

Прогноз погоды на 24 ч. с 12:00 24-06-2024 по 12:00 25-06-2024 UTC


Исходная телеграмма в коде TAF
DAUI 241100Z 2412/2512 02008KT 8000 NSC
BECMG 2413/2415 22010KT
BECMG 2422/2424 08012KT
BECMG 2507/2509 08022KT 3000 DRSA

Раскодировка телеграмм производится в автоматическом режиме, в телеграммах могут содержаться ошибки, приводящие к их неправильной интерпретации.

Предупреждение: данные на этом сайте не могут быть использованы для планирования полётов и предоставляются только в информационных целях.
Найти аэропорт
По названию или городу
только регулярные рейсы

Избранные аэропорты
Список пуст



© 2008 Данио-Пресс. Все права защищены.
Использование материалов сайта возможно только с согласия администрации сервера.
По вопросам рекламы и размещения информации обращаться сюда.


 Рейтинг@Mail.ru  Rambler's Top100